Fountain, North Carolina
Current Conditions -  °F | °C
As of 6:55 AM on Thursday 27 Nov 2014 (Local Time) from KPGV Reporting Station
Broken Clouds Broken Clouds  
Wind Chill: 39°   Ceiling: 3700
Heat Index: 39°   Visibility: 10mi
Dew Point: 37°   Wind: 3mph
Humidity: 93%   Direction: 170°S
Pressure: 30.08"   Gusts: NA
Location:  35.67°N, 77.64°W
Report Text: KPGV 271155Z AUTO 17003KT 10SM SCT029 BKN037 BKN090 04/03 A3008 RMK AO2
Loading
Personal Weather Stations






























Interactive Weather Map New forecast layout! Learn more

10-Day Weather Forecast

Advertisements
Track Severe Weather on mobile